createdAt,value
2023-04-15T00:00:28.916Z,150.42
2023-04-15T00:01:28.907Z,152.32
2023-04-15T00:02:29.014Z,152.14
2023-04-15T00:03:29.090Z,152.27
2023-04-15T00:04:28.980Z,152.37
2023-04-15T00:05:28.866Z,151.54
2023-04-15T00:06:28.858Z,152.24
2023-04-15T00:07:28.849Z,152.73
2023-04-15T00:08:28.852Z,151.97
2023-04-15T00:09:28.832Z,150.36
2023-04-15T00:10:28.838Z,149.36
2023-04-15T00:11:28.825Z,152.27
2023-04-15T00:12:28.820Z,149.56
2023-04-15T00:13:28.804Z,150.00
2023-04-15T00:14:28.792Z,151.71
2023-04-15T00:15:28.784Z,151.26
2023-04-15T00:16:28.786Z,151.86
2023-04-15T00:17:28.825Z,150.95
2023-04-15T00:18:28.846Z,147.65
2023-04-15T00:19:28.888Z,148.88
2023-04-15T00:20:28.935Z,149.47
2023-04-15T00:21:28.990Z,149.50
2023-04-15T00:22:28.996Z,146.54
2023-04-15T00:23:29.053Z,145.26
2023-04-15T00:24:29.088Z,149.73
2023-04-15T00:25:29.154Z,149.21
2023-04-15T00:26:29.170Z,146.66
2023-04-15T00:27:29.218Z,144.70
2023-04-15T00:28:29.246Z,145.75
2023-04-15T00:29:29.293Z,146.08
2023-04-15T00:30:29.337Z,145.22
2023-04-15T00:31:29.563Z,146.11
2023-04-15T00:32:29.479Z,146.50
2023-04-15T00:33:29.469Z,144.95
2023-04-15T00:34:29.514Z,144.61
2023-04-15T00:35:29.537Z,142.66
2023-04-15T00:36:29.579Z,146.19
2023-04-15T00:37:29.629Z,144.07
2023-04-15T00:38:29.688Z,144.46
2023-04-15T00:39:29.744Z,143.61
2023-04-15T00:40:29.761Z,144.54
2023-04-15T00:41:29.802Z,143.39
2023-04-15T00:42:29.843Z,143.19
2023-04-15T00:43:29.888Z,143.46
2023-04-15T00:44:29.967Z,142.65
2023-04-15T00:45:30.040Z,142.63
2023-04-15T00:46:30.032Z,143.39
2023-04-15T00:47:30.180Z,143.67
2023-04-15T00:48:30.137Z,141.95
2023-04-15T00:49:30.159Z,142.88
2023-04-15T00:50:30.194Z,141.85
2023-04-15T00:51:30.239Z,142.46
2023-04-15T00:52:30.305Z,141.61
2023-04-15T00:53:30.339Z,142.63
2023-04-15T00:54:30.381Z,142.78
2023-04-15T00:55:30.416Z,143.31
2023-04-15T00:56:30.462Z,141.85
2023-04-15T00:57:30.502Z,141.83
2023-04-15T00:58:30.554Z,142.06
2023-04-15T00:59:30.600Z,140.97
2023-04-15T01:00:30.661Z,141.82
2023-04-15T01:01:30.722Z,140.71
2023-04-15T01:02:30.841Z,142.25
2023-04-15T01:03:30.816Z,142.04
2023-04-15T01:04:30.907Z,141.39
2023-04-15T01:05:30.859Z,141.91
2023-04-15T01:06:30.887Z,142.82
2023-04-15T01:07:30.947Z,142.11
2023-04-15T01:08:30.989Z,140.96
2023-04-15T01:09:31.039Z,140.19
2023-04-15T01:10:31.089Z,140.09
2023-04-15T01:11:31.129Z,141.33
2023-04-15T01:12:31.189Z,140.29
2023-04-15T01:13:31.238Z,141.13
2023-04-15T01:14:31.287Z,140.69
2023-04-15T01:15:31.334Z,140.61
2023-04-15T01:16:31.472Z,141.09
2023-04-15T01:17:31.512Z,141.79
2023-04-15T01:18:31.519Z,139.66
2023-04-15T01:19:31.541Z,141.29
2023-04-15T01:20:31.585Z,141.30
2023-04-15T01:21:31.627Z,139.70
2023-04-15T01:22:31.689Z,139.15
2023-04-15T01:23:31.743Z,137.10
2023-04-15T01:24:31.790Z,138.72
2023-04-15T01:25:31.843Z,138.53
2023-04-15T01:26:31.887Z,138.08
2023-04-15T01:27:31.926Z,137.23
2023-04-15T01:28:31.980Z,137.49
2023-04-15T01:29:32.023Z,137.45
2023-04-15T01:30:32.077Z,138.84
2023-04-15T01:31:32.199Z,139.05
2023-04-15T01:32:32.200Z,137.80
2023-04-15T01:33:32.206Z,137.21
2023-04-15T01:34:35.071Z,137.42
2023-04-15T01:35:32.330Z,139.02
2023-04-15T01:36:32.222Z,137.36
2023-04-15T01:37:32.221Z,136.55
2023-04-15T01:38:32.210Z,138.35
2023-04-15T01:39:32.242Z,136.33
2023-04-15T01:40:32.194Z,137.20
2023-04-15T01:41:32.189Z,135.46
2023-04-15T01:42:32.181Z,134.88
2023-04-15T01:43:32.185Z,136.62
2023-04-15T01:44:32.170Z,136.40
2023-04-15T01:45:32.149Z,137.07
2023-04-15T01:46:32.184Z,135.82
2023-04-15T01:47:32.181Z,136.85
2023-04-15T01:48:32.137Z,135.93
2023-04-15T01:49:32.126Z,136.66
2023-04-15T01:50:32.113Z,137.24
2023-04-15T01:51:32.096Z,137.15
2023-04-15T01:52:32.118Z,136.42
2023-04-15T01:53:32.109Z,136.92
2023-04-15T01:54:32.101Z,136.60
2023-04-15T01:55:32.102Z,136.12
2023-04-15T01:56:32.093Z,135.40
2023-04-15T01:57:32.095Z,135.59
2023-04-15T01:58:32.089Z,136.78
2023-04-15T01:59:32.094Z,134.59
2023-04-15T02:00:32.087Z,135.39
2023-04-15T02:01:32.132Z,133.73
2023-04-15T02:02:32.250Z,134.28
2023-04-15T02:03:32.117Z,135.21
2023-04-15T02:04:32.065Z,134.60
2023-04-15T02:05:32.069Z,134.23
2023-04-15T02:06:32.067Z,134.16
2023-04-15T02:07:32.054Z,134.78
2023-04-15T02:08:32.056Z,133.92
2023-04-15T02:09:32.042Z,132.60
2023-04-15T02:10:32.068Z,133.45
2023-04-15T02:11:32.097Z,133.05
2023-04-15T02:12:32.145Z,132.73
2023-04-15T02:13:32.181Z,133.05
2023-04-15T02:14:32.237Z,134.03
2023-04-15T02:15:32.273Z,132.46
2023-04-15T02:16:32.375Z,131.51
2023-04-15T02:17:32.395Z,130.07
2023-04-15T02:18:32.423Z,132.08
2023-04-15T02:19:32.477Z,130.46
2023-04-15T02:20:32.551Z,131.79
2023-04-15T02:21:32.580Z,130.87
2023-04-15T02:22:32.634Z,131.57
2023-04-15T02:23:32.687Z,130.83
2023-04-15T02:24:32.731Z,131.80
2023-04-15T02:25:32.774Z,130.62
2023-04-15T02:26:32.834Z,129.85
2023-04-15T02:27:32.881Z,130.49
2023-04-15T02:28:32.927Z,128.72
2023-04-15T02:29:32.983Z,129.15
2023-04-15T02:30:33.035Z,128.13
2023-04-15T02:31:33.118Z,129.24
2023-04-15T02:32:33.180Z,129.90
2023-04-15T02:33:33.192Z,129.10
2023-04-15T02:34:33.236Z,129.49
2023-04-15T02:35:33.286Z,129.63
2023-04-15T02:36:33.344Z,127.58
2023-04-15T02:37:33.397Z,130.01
2023-04-15T02:38:33.453Z,129.08
2023-04-15T02:39:33.520Z,127.66
2023-04-15T02:40:33.566Z,127.93
2023-04-15T02:41:33.617Z,128.64
2023-04-15T02:42:33.674Z,127.29
2023-04-15T02:43:33.750Z,125.78
2023-04-15T02:44:33.782Z,126.61
2023-04-15T02:45:33.848Z,126.95
2023-04-15T02:46:33.874Z,126.02
2023-04-15T02:47:33.945Z,126.65
2023-04-15T02:48:33.987Z,125.46
2023-04-15T02:49:34.058Z,126.84
2023-04-15T02:50:34.104Z,126.57
2023-04-15T02:51:34.151Z,126.66
2023-04-15T02:52:34.220Z,125.09
2023-04-15T02:53:34.264Z,126.28
2023-04-15T02:54:34.310Z,124.40
2023-04-15T02:55:34.393Z,124.15
2023-04-15T02:56:34.420Z,124.02
2023-04-15T02:57:34.475Z,123.32
2023-04-15T02:58:34.522Z,122.85
2023-04-15T02:59:34.590Z,122.21
2023-04-15T03:00:34.645Z,120.60
2023-04-15T03:01:34.736Z,121.32
2023-04-15T03:02:34.838Z,121.37
2023-04-15T03:03:34.913Z,120.28
2023-04-15T03:04:34.891Z,120.06
2023-04-15T03:05:34.942Z,120.18
2023-04-15T03:06:35.005Z,120.88
2023-04-15T03:07:35.058Z,118.73
2023-04-15T03:08:35.129Z,119.53
2023-04-15T03:09:35.174Z,119.57
2023-04-15T03:10:35.236Z,120.32
2023-04-15T03:11:36.522Z,119.88
2023-04-15T03:12:35.321Z,119.46
2023-04-15T03:13:35.376Z,119.82
2023-04-15T03:14:35.426Z,119.16
2023-04-15T03:15:35.568Z,119.42
2023-04-15T03:16:35.561Z,119.12
2023-04-15T03:17:35.588Z,118.94
2023-04-15T03:18:35.629Z,118.95
2023-04-15T03:19:35.680Z,119.91
2023-04-15T03:20:35.772Z,118.76
2023-04-15T03:21:35.770Z,115.71
2023-04-15T03:22:35.829Z,116.31
2023-04-15T03:23:35.897Z,116.71
2023-04-15T03:24:35.952Z,117.01
2023-04-15T03:25:35.993Z,116.81
2023-04-15T03:26:36.056Z,117.89
2023-04-15T03:27:36.104Z,116.35
2023-04-15T03:28:36.181Z,116.73
2023-04-15T03:29:36.231Z,115.70
2023-04-15T03:30:36.288Z,116.57
2023-04-15T03:31:36.327Z,115.01
2023-04-15T03:32:36.370Z,113.66
2023-04-15T03:33:36.409Z,115.04
2023-04-15T03:34:36.465Z,115.02
2023-04-15T03:35:36.533Z,114.68
2023-04-15T03:36:36.598Z,114.26
2023-04-15T03:37:36.658Z,112.94
2023-04-15T03:38:36.711Z,113.05
2023-04-15T03:39:36.783Z,113.49
2023-04-15T03:40:36.882Z,113.11
2023-04-15T03:41:36.903Z,112.97
2023-04-15T03:42:36.955Z,112.75
2023-04-15T03:43:37.018Z,113.87
2023-04-15T03:44:37.079Z,113.25
2023-04-15T03:45:37.134Z,113.29
2023-04-15T03:46:37.209Z,114.44
2023-04-15T03:47:37.266Z,113.81
2023-04-15T03:48:37.305Z,113.28
2023-04-15T03:49:37.351Z,113.38
2023-04-15T03:50:37.405Z,112.62
2023-04-15T03:51:37.465Z,111.97
2023-04-15T03:52:37.536Z,113.07
2023-04-15T03:53:37.598Z,112.02
2023-04-15T03:54:37.632Z,111.85
2023-04-15T03:55:37.689Z,112.35
2023-04-15T03:56:37.747Z,112.13
2023-04-15T03:57:37.798Z,112.76
2023-04-15T03:58:37.856Z,111.24
2023-04-15T03:59:37.922Z,110.45
2023-04-15T04:00:37.976Z,110.63
2023-04-15T04:01:38.105Z,110.77
2023-04-15T04:02:38.201Z,109.29
2023-04-15T04:03:38.286Z,108.70
2023-04-15T04:04:38.260Z,107.80
2023-04-15T04:05:38.299Z,106.85
2023-04-15T04:06:38.353Z,107.40
2023-04-15T04:07:38.394Z,108.60
2023-04-15T04:08:38.450Z,107.69
2023-04-15T04:09:38.537Z,107.13
2023-04-15T04:10:38.589Z,108.31
2023-04-15T04:11:38.633Z,108.27
2023-04-15T04:12:38.716Z,107.07
2023-04-15T04:13:38.762Z,107.56
2023-04-15T04:14:38.823Z,106.65
2023-04-15T04:15:38.923Z,106.33
2023-04-15T04:16:38.958Z,108.47
2023-04-15T04:17:39.097Z,106.86
2023-04-15T04:18:39.076Z,105.44
2023-04-15T04:19:39.109Z,106.59
2023-04-15T04:20:39.181Z,106.16
2023-04-15T04:21:39.275Z,106.45
2023-04-15T04:22:39.315Z,106.63
2023-04-15T04:23:39.363Z,106.37
2023-04-15T04:24:39.440Z,108.06
2023-04-15T04:25:39.496Z,106.13
2023-04-15T04:26:39.564Z,106.88
2023-04-15T04:27:39.615Z,106.64
2023-04-15T04:28:39.659Z,107.26
2023-04-15T04:29:39.732Z,105.78
2023-04-15T04:30:39.793Z,105.24
2023-04-15T04:31:39.867Z,104.60
2023-04-15T04:32:39.930Z,104.06
2023-04-15T04:33:39.952Z,106.05
2023-04-15T04:34:40.057Z,105.17
2023-04-15T04:35:40.082Z,106.26
2023-04-15T04:36:40.144Z,105.53
2023-04-15T04:37:40.208Z,105.30
2023-04-15T04:38:40.267Z,103.75
2023-04-15T04:39:40.322Z,105.56
2023-04-15T04:40:40.399Z,105.16
2023-04-15T04:41:40.455Z,104.42
2023-04-15T04:42:40.522Z,104.46
2023-04-15T04:43:40.593Z,101.91
2023-04-15T04:44:40.650Z,104.00
2023-04-15T04:45:40.723Z,104.53
2023-04-15T04:46:40.756Z,102.86
2023-04-15T04:47:40.895Z,102.17
2023-04-15T04:48:40.888Z,104.42
2023-04-15T04:49:40.967Z,102.82
2023-04-15T04:50:41.029Z,103.27
2023-04-15T04:51:41.097Z,102.59
2023-04-15T04:52:41.162Z,103.20
2023-04-15T04:53:41.210Z,102.28
2023-04-15T04:54:41.287Z,102.26
2023-04-15T04:55:41.330Z,102.69
2023-04-15T04:56:41.369Z,102.38
2023-04-15T04:57:41.438Z,101.90
2023-04-15T04:58:41.505Z,102.35
2023-04-15T04:59:41.574Z,102.00
2023-04-15T05:00:41.628Z,102.82
2023-04-15T05:01:41.775Z,103.29
2023-04-15T05:02:41.873Z,102.53
2023-04-15T05:03:41.890Z,102.16
2023-04-15T05:04:41.900Z,102.07
2023-04-15T05:05:41.937Z,103.61
2023-04-15T05:06:42.007Z,102.03
2023-04-15T05:07:42.066Z,100.59
2023-04-15T05:08:42.125Z,101.95
2023-04-15T05:09:42.193Z,101.73
2023-04-15T05:10:42.265Z,100.29
2023-04-15T05:11:42.325Z,100.30
2023-04-15T05:12:42.370Z,101.49
2023-04-15T05:13:42.443Z,98.97
2023-04-15T05:14:42.515Z,99.85
2023-04-15T05:15:42.566Z,100.15
2023-04-15T05:16:42.610Z,100.03
2023-04-15T05:17:42.696Z,100.65
2023-04-15T05:18:42.732Z,99.66
2023-04-15T05:19:42.797Z,100.26
2023-04-15T05:20:42.841Z,99.37
2023-04-15T05:21:42.883Z,99.12
2023-04-15T05:22:42.916Z,98.25
2023-04-15T05:23:42.961Z,99.30
2023-04-15T05:24:43.028Z,99.58
2023-04-15T05:25:43.068Z,98.78
2023-04-15T05:26:43.125Z,96.65
2023-04-15T05:27:43.197Z,99.82
2023-04-15T05:28:43.246Z,99.66
2023-04-15T05:29:43.290Z,98.32
2023-04-15T05:30:43.339Z,97.42
2023-04-15T05:31:43.377Z,98.48
2023-04-15T05:32:43.492Z,97.20
2023-04-15T05:33:43.485Z,97.21
2023-04-15T05:34:43.551Z,96.86
2023-04-15T05:35:43.604Z,98.13
2023-04-15T05:36:43.655Z,96.90
2023-04-15T05:37:43.705Z,97.68
2023-04-15T05:38:43.747Z,95.77
2023-04-15T05:39:43.818Z,97.88
2023-04-15T05:40:43.865Z,98.63
2023-04-15T05:41:43.941Z,97.16
2023-04-15T05:42:43.997Z,95.04
2023-04-15T05:43:44.059Z,96.00
2023-04-15T05:44:44.135Z,95.52
2023-04-15T05:45:44.185Z,93.24
2023-04-15T05:46:44.243Z,94.17
2023-04-15T05:47:44.321Z,95.26
2023-04-15T05:48:44.355Z,95.70
2023-04-15T05:49:44.415Z,94.94
2023-04-15T05:50:44.481Z,96.55
2023-04-15T05:51:44.546Z,94.30
2023-04-15T05:52:44.602Z,94.88
2023-04-15T05:53:44.661Z,94.86
2023-04-15T05:54:44.716Z,94.15
2023-04-15T05:55:44.773Z,95.74
2023-04-15T05:56:44.844Z,95.12
2023-04-15T05:57:44.885Z,95.31
2023-04-15T05:58:44.945Z,94.58
2023-04-15T05:59:44.992Z,94.87
2023-04-15T06:00:45.063Z,95.66
2023-04-15T06:01:45.276Z,94.35
2023-04-15T06:02:45.291Z,93.90
2023-04-15T06:03:45.360Z,96.22
2023-04-15T06:04:45.297Z,97.11
2023-04-15T06:05:45.340Z,93.36
2023-04-15T06:06:45.402Z,93.61
2023-04-15T06:07:47.336Z,93.76
2023-04-15T06:08:45.431Z,94.24
2023-04-15T06:09:45.434Z,92.35
2023-04-15T06:10:45.444Z,91.70
2023-04-15T06:11:45.446Z,92.29
2023-04-15T06:12:45.442Z,89.41
2023-04-15T06:13:45.447Z,91.75
2023-04-15T06:14:45.435Z,91.70
2023-04-15T06:15:45.438Z,92.20
2023-04-15T06:16:45.427Z,92.63
2023-04-15T06:17:45.470Z,91.24
2023-04-15T06:18:45.429Z,92.63
2023-04-15T06:19:45.433Z,91.64
2023-04-15T06:20:45.422Z,90.80
2023-04-15T06:21:45.427Z,89.83
2023-04-15T06:22:45.424Z,92.78
2023-04-15T06:23:45.424Z,92.65
2023-04-15T06:24:45.433Z,91.12
2023-04-15T06:25:45.421Z,91.76
2023-04-15T06:26:45.421Z,91.70
2023-04-15T06:27:45.419Z,92.78
2023-04-15T06:28:45.420Z,92.37
2023-04-15T06:29:45.406Z,92.41
2023-04-15T06:30:45.448Z,91.21
2023-04-15T06:31:45.475Z,92.10
2023-04-15T06:32:45.417Z,92.59
2023-04-15T06:33:45.406Z,90.35
2023-04-15T06:34:45.408Z,92.25
2023-04-15T06:35:45.405Z,91.24
2023-04-15T06:36:45.411Z,91.00
2023-04-15T06:37:45.403Z,91.20
2023-04-15T06:38:45.398Z,90.23
2023-04-15T06:39:45.410Z,88.66
2023-04-15T06:40:45.403Z,88.96
2023-04-15T06:41:45.403Z,90.31
2023-04-15T06:42:45.420Z,89.54
2023-04-15T06:43:45.414Z,88.96
2023-04-15T06:44:45.402Z,90.68
2023-04-15T06:45:45.427Z,90.51
2023-04-15T06:46:45.400Z,91.72
2023-04-15T06:47:45.527Z,89.97
2023-04-15T06:48:45.392Z,89.48
2023-04-15T06:49:45.406Z,91.16
2023-04-15T06:50:45.400Z,88.17
2023-04-15T06:51:45.383Z,89.28
2023-04-15T06:52:45.390Z,90.12
2023-04-15T06:53:45.377Z,89.61
2023-04-15T06:54:45.383Z,87.67
2023-04-15T06:55:45.392Z,89.47
2023-04-15T06:56:45.436Z,88.92
2023-04-15T06:57:45.473Z,88.56
2023-04-15T06:58:45.510Z,90.96
2023-04-15T06:59:45.541Z,87.30
2023-04-15T07:00:45.605Z,89.92
2023-04-15T07:01:45.681Z,90.39
2023-04-15T07:02:45.726Z,88.69
2023-04-15T07:03:45.713Z,87.65
2023-04-15T07:04:45.742Z,86.15
2023-04-15T07:05:45.765Z,87.32
2023-04-15T07:06:45.786Z,84.27
2023-04-15T07:07:45.816Z,86.52
2023-04-15T07:08:45.856Z,85.97
2023-04-15T07:09:45.882Z,85.91
2023-04-15T07:10:45.917Z,84.36
2023-04-15T07:11:45.952Z,84.77
2023-04-15T07:12:45.981Z,85.28
2023-04-15T07:13:46.009Z,83.90
2023-04-15T07:14:46.034Z,82.50
2023-04-15T07:15:46.051Z,84.25
2023-04-15T07:16:46.117Z,82.17
2023-04-15T07:17:46.137Z,81.79
2023-04-15T07:18:46.125Z,82.75
2023-04-15T07:19:46.151Z,83.61
2023-04-15T07:20:46.173Z,82.61
2023-04-15T07:21:46.185Z,80.62
2023-04-15T07:22:46.220Z,78.86
2023-04-15T07:23:46.234Z,79.43
2023-04-15T07:24:46.264Z,81.14
2023-04-15T07:25:46.268Z,79.43
2023-04-15T07:26:46.309Z,81.00
2023-04-15T07:27:46.318Z,79.01
2023-04-15T07:28:46.323Z,79.98
2023-04-15T07:29:46.320Z,79.87
2023-04-15T07:30:46.369Z,79.27
2023-04-15T07:31:46.337Z,78.49
2023-04-15T07:32:46.400Z,79.47
2023-04-15T07:33:46.387Z,78.05
2023-04-15T07:34:46.404Z,79.48
2023-04-15T07:35:46.381Z,77.01
2023-04-15T07:36:46.397Z,77.29
2023-04-15T07:37:46.408Z,76.99
2023-04-15T07:38:46.410Z,76.93
2023-04-15T07:39:46.452Z,78.92
2023-04-15T07:40:46.440Z,76.11
2023-04-15T07:41:46.466Z,79.03
2023-04-15T07:42:46.473Z,79.68
2023-04-15T07:43:46.466Z,78.34
2023-04-15T07:44:46.472Z,77.92
2023-04-15T07:45:46.505Z,77.43
2023-04-15T07:46:46.515Z,79.19
2023-04-15T07:47:46.611Z,77.35
2023-04-15T07:48:46.536Z,75.92
2023-04-15T07:49:46.564Z,76.70
2023-04-15T07:50:46.580Z,76.43
2023-04-15T07:51:46.594Z,76.09
2023-04-15T07:52:46.613Z,76.88
2023-04-15T07:53:46.629Z,77.93
2023-04-15T07:54:46.650Z,76.07
2023-04-15T07:55:46.660Z,77.07
2023-04-15T07:56:46.667Z,75.69
2023-04-15T07:57:46.676Z,75.56
2023-04-15T07:58:46.693Z,76.25
2023-04-15T07:59:46.716Z,77.60
2023-04-15T08:00:46.709Z,77.41
2023-04-15T08:01:46.751Z,76.24
2023-04-15T08:02:46.872Z,75.27
2023-04-15T08:03:46.877Z,74.13
2023-04-15T08:04:46.902Z,75.08
2023-04-15T08:05:46.768Z,74.34
2023-04-15T08:06:46.778Z,75.46
2023-04-15T08:07:46.807Z,75.33
2023-04-15T08:08:46.821Z,76.30
2023-04-15T08:09:46.844Z,76.07
2023-04-15T08:10:46.865Z,76.56
2023-04-15T08:11:46.861Z,75.22
2023-04-15T08:12:46.871Z,75.30
2023-04-15T08:13:46.891Z,74.79
2023-04-15T08:14:46.950Z,77.74
2023-04-15T08:15:46.917Z,74.86
2023-04-15T08:16:46.914Z,76.56
2023-04-15T08:17:46.953Z,76.32
2023-04-15T08:18:46.927Z,75.77
2023-04-15T08:19:46.942Z,74.89
2023-04-15T08:20:46.961Z,74.12
2023-04-15T08:21:46.955Z,73.58
2023-04-15T08:22:46.946Z,76.10
2023-04-15T08:23:46.978Z,75.07
2023-04-15T08:24:46.983Z,73.39
2023-04-15T08:25:46.990Z,70.93
2023-04-15T08:26:46.990Z,72.49
2023-04-15T08:27:47.009Z,73.99
2023-04-15T08:28:47.013Z,73.56
2023-04-15T08:29:47.040Z,74.36
2023-04-15T08:30:47.049Z,74.18
2023-04-15T08:31:47.104Z,74.27
2023-04-15T08:32:47.129Z,75.05
2023-04-15T08:33:47.057Z,76.67
2023-04-15T08:34:47.079Z,74.45
2023-04-15T08:35:47.082Z,73.62
2023-04-15T08:36:47.102Z,74.81
2023-04-15T08:37:47.108Z,72.21
2023-04-15T08:38:47.126Z,74.14
2023-04-15T08:39:47.150Z,72.02
2023-04-15T08:40:47.138Z,73.57
2023-04-15T08:41:47.160Z,72.89
2023-04-15T08:42:47.164Z,74.32
2023-04-15T08:43:47.185Z,71.82
2023-04-15T08:44:47.214Z,72.75
2023-04-15T08:45:47.211Z,72.19
2023-04-15T08:46:47.251Z,71.27
2023-04-15T08:47:47.266Z,71.32
2023-04-15T08:48:47.249Z,72.90
2023-04-15T08:49:47.263Z,70.28
2023-04-15T08:50:47.258Z,72.06
2023-04-15T08:51:47.286Z,70.86
2023-04-15T08:52:47.282Z,71.96
2023-04-15T08:53:47.373Z,70.52
2023-04-15T08:54:47.311Z,72.73
2023-04-15T08:55:47.324Z,72.15
2023-04-15T08:56:47.323Z,73.98
2023-04-15T08:57:47.313Z,72.91
2023-04-15T08:58:47.318Z,75.58
2023-04-15T08:59:47.331Z,73.06
2023-04-15T09:00:47.359Z,75.32
2023-04-15T09:01:47.348Z,76.05
2023-04-15T09:02:47.399Z,72.62
2023-04-15T09:03:47.458Z,74.11
2023-04-15T09:04:47.340Z,74.81
2023-04-15T09:05:47.327Z,75.29
2023-04-15T09:06:47.333Z,75.83
2023-04-15T09:07:47.389Z,73.48
2023-04-15T09:08:47.330Z,77.16
2023-04-15T09:09:47.321Z,76.39
2023-04-15T09:10:47.329Z,77.05
2023-04-15T09:11:47.320Z,77.57
2023-04-15T09:12:47.301Z,77.37
2023-04-15T09:13:47.306Z,74.49
2023-04-15T09:14:47.737Z,75.30
2023-04-15T09:15:47.308Z,75.55
2023-04-15T09:16:49.282Z,76.76
2023-04-15T09:17:47.346Z,78.14
2023-04-15T09:18:47.288Z,78.58
2023-04-15T09:19:47.262Z,75.76
2023-04-15T09:20:47.258Z,79.42
2023-04-15T09:21:47.239Z,76.73
2023-04-15T09:22:47.235Z,76.25
2023-04-15T09:23:47.210Z,77.39
2023-04-15T09:24:47.198Z,76.62
2023-04-15T09:25:47.198Z,77.47
2023-04-15T09:26:47.195Z,76.87
2023-04-15T09:27:47.173Z,75.58
2023-04-15T09:28:47.158Z,76.26
2023-04-15T09:29:47.144Z,75.57
2023-04-15T09:30:49.098Z,74.43
2023-04-15T09:31:47.115Z,74.57
2023-04-15T09:32:47.169Z,74.87
2023-04-15T09:33:47.091Z,75.27
2023-04-15T09:34:47.085Z,75.37
2023-04-15T09:35:47.063Z,75.08
2023-04-15T09:36:48.534Z,75.37
2023-04-15T09:37:47.031Z,75.45
2023-04-15T09:38:47.017Z,75.63
2023-04-15T09:39:47.003Z,73.70
2023-04-15T09:40:46.992Z,75.55
2023-04-15T09:41:46.988Z,73.89
2023-04-15T09:42:48.155Z,76.68
2023-04-15T09:43:46.960Z,76.76
2023-04-15T09:44:46.948Z,76.71
2023-04-15T09:45:46.967Z,76.50
2023-04-15T09:46:46.925Z,74.62
2023-04-15T09:47:46.919Z,74.44
2023-04-15T09:48:46.893Z,72.48
2023-04-15T09:49:46.908Z,74.63
2023-04-15T09:50:46.867Z,74.66
2023-04-15T09:51:57.940Z,73.41
2023-04-15T09:52:47.848Z,73.64
2023-04-15T09:53:46.816Z,73.64
2023-04-15T09:54:46.811Z,74.22
2023-04-15T09:55:46.795Z,74.27
2023-04-15T09:56:46.783Z,73.70
2023-04-15T09:57:46.772Z,75.45
2023-04-15T09:58:46.763Z,74.82
2023-04-15T09:59:46.746Z,73.87
2023-04-15T10:00:46.749Z,74.46
2023-04-15T10:01:46.978Z,72.88
2023-04-15T10:02:47.013Z,73.43
2023-04-15T10:03:46.970Z,72.30
2023-04-15T10:04:46.973Z,72.13
2023-04-15T10:05:47.030Z,73.39
2023-04-15T10:06:47.081Z,71.48
2023-04-15T10:07:47.130Z,74.07
2023-04-15T10:08:47.184Z,71.69
2023-04-15T10:09:47.238Z,72.76
2023-04-15T10:10:47.280Z,73.02
2023-04-15T10:11:47.332Z,73.18
2023-04-15T10:12:47.387Z,73.92
2023-04-15T10:13:47.424Z,73.72
2023-04-15T10:14:47.474Z,74.45
2023-04-15T10:15:47.523Z,72.51
2023-04-15T10:16:47.556Z,73.70
2023-04-15T10:17:47.676Z,74.63
2023-04-15T10:18:47.662Z,72.94
2023-04-15T10:19:47.716Z,74.76
2023-04-15T10:20:47.799Z,73.57
2023-04-15T10:21:47.792Z,73.83
2023-04-15T10:22:47.856Z,75.52
2023-04-15T10:23:47.861Z,74.40
2023-04-15T10:24:47.917Z,76.05
2023-04-15T10:25:47.933Z,75.13
2023-04-15T10:26:47.975Z,75.81
2023-04-15T10:27:48.040Z,74.97
2023-04-15T10:28:48.070Z,75.72
2023-04-15T10:29:48.134Z,75.31
2023-04-15T10:30:48.161Z,75.49
2023-04-15T10:31:48.366Z,75.48
2023-04-15T10:32:48.283Z,76.78
2023-04-15T10:33:48.317Z,74.65
2023-04-15T10:34:48.362Z,76.79
2023-04-15T10:35:48.396Z,75.49
2023-04-15T10:36:48.446Z,75.52
2023-04-15T10:37:48.500Z,75.19
2023-04-15T10:38:48.550Z,76.31
2023-04-15T10:39:48.580Z,75.75
2023-04-15T10:40:48.637Z,76.12
2023-04-15T10:41:48.677Z,74.56
2023-04-15T10:42:48.728Z,77.53
2023-04-15T10:43:48.786Z,74.46
2023-04-15T10:44:48.812Z,74.17
2023-04-15T10:45:48.856Z,75.35
2023-04-15T10:46:48.917Z,75.24
2023-04-15T10:47:48.977Z,76.14
2023-04-15T10:48:49.009Z,77.33
2023-04-15T10:49:49.053Z,76.18
2023-04-15T10:50:49.085Z,76.67
2023-04-15T10:51:49.144Z,74.72
2023-04-15T10:52:49.192Z,73.55
2023-04-15T10:53:49.249Z,75.02
2023-04-15T10:54:49.292Z,74.42
2023-04-15T10:55:49.336Z,74.79
2023-04-15T10:56:49.376Z,73.96
2023-04-15T10:57:49.424Z,73.35
2023-04-15T10:58:49.460Z,75.05
2023-04-15T10:59:49.495Z,73.36
2023-04-15T11:00:49.532Z,71.62
2023-04-15T11:01:49.704Z,74.57
2023-04-15T11:02:49.729Z,73.40
2023-04-15T11:03:49.801Z,75.56
2023-04-15T11:04:49.751Z,73.64
2023-04-15T11:05:49.732Z,73.78
2023-04-15T11:06:49.784Z,73.73
2023-04-15T11:07:49.817Z,73.23
2023-04-15T11:08:49.874Z,75.37
2023-04-15T11:09:49.911Z,74.29
2023-04-15T11:10:49.977Z,74.61
2023-04-15T11:11:50.019Z,75.07
2023-04-15T11:12:50.089Z,74.89
2023-04-15T11:13:50.124Z,72.65
2023-04-15T11:14:50.172Z,72.80
2023-04-15T11:15:50.216Z,72.50
2023-04-15T11:16:50.302Z,73.48
2023-04-15T11:17:50.336Z,74.58
2023-04-15T11:18:50.377Z,71.92
2023-04-15T11:19:50.429Z,72.26
2023-04-15T11:20:50.507Z,70.79
2023-04-15T11:21:50.550Z,72.12
2023-04-15T11:22:50.592Z,70.83
2023-04-15T11:23:50.653Z,72.33
2023-04-15T11:24:50.717Z,71.27
2023-04-15T11:25:50.756Z,73.04
2023-04-15T11:26:50.862Z,71.33
2023-04-15T11:27:50.861Z,70.88
2023-04-15T11:28:50.925Z,71.16
2023-04-15T11:29:50.958Z,70.19
2023-04-15T11:30:50.997Z,71.19
2023-04-15T11:31:51.052Z,70.64
2023-04-15T11:32:51.126Z,73.24
2023-04-15T11:33:51.170Z,71.51
2023-04-15T11:34:51.219Z,69.91
2023-04-15T11:35:51.274Z,71.31
2023-04-15T11:36:51.323Z,70.60
2023-04-15T11:37:51.385Z,71.78
2023-04-15T11:38:51.425Z,70.74
2023-04-15T11:39:51.485Z,72.56
2023-04-15T11:40:51.510Z,72.69
2023-04-15T11:41:51.539Z,72.94
2023-04-15T11:42:51.570Z,72.39
2023-04-15T11:43:51.642Z,68.23
2023-04-15T11:44:51.653Z,70.26
2023-04-15T11:45:51.766Z,68.46
2023-04-15T11:46:51.734Z,68.04
2023-04-15T11:47:51.831Z,67.16
2023-04-15T11:48:51.829Z,69.56
2023-04-15T11:49:51.864Z,68.23
2023-04-15T11:50:51.907Z,68.98
2023-04-15T11:51:51.934Z,68.40
2023-04-15T11:52:51.983Z,68.55
2023-04-15T11:53:52.061Z,68.98
2023-04-15T11:54:52.049Z,69.13
2023-04-15T11:55:52.090Z,69.01
2023-04-15T11:56:52.135Z,68.31
2023-04-15T11:57:52.166Z,68.11
2023-04-15T11:58:52.192Z,66.66
2023-04-15T11:59:52.248Z,67.79
2023-04-15T12:00:52.284Z,68.24
2023-04-15T12:01:52.314Z,65.26
2023-04-15T12:02:52.459Z,64.86
2023-04-15T12:03:52.454Z,65.80
2023-04-15T12:04:52.402Z,65.36
2023-04-15T12:05:52.378Z,67.42
2023-04-15T12:06:52.390Z,65.04
2023-04-15T12:07:52.438Z,65.06
2023-04-15T12:08:52.485Z,63.65
2023-04-15T12:09:52.530Z,65.57
2023-04-15T12:10:52.588Z,64.21
2023-04-15T12:11:52.657Z,64.55
2023-04-15T12:12:52.703Z,64.19
2023-04-15T12:13:52.743Z,64.57
2023-04-15T12:14:52.758Z,62.94
2023-04-15T12:15:52.800Z,63.85
2023-04-15T12:16:52.785Z,63.71
2023-04-15T12:17:52.820Z,63.96
2023-04-15T12:18:52.794Z,63.27
2023-04-15T12:19:52.815Z,62.31
2023-04-15T12:20:52.861Z,62.97
2023-04-15T12:21:52.864Z,62.40
2023-04-15T12:22:52.909Z,63.57
2023-04-15T12:23:52.944Z,64.08
2023-04-15T12:24:53.001Z,64.73
2023-04-15T12:25:53.055Z,60.08
2023-04-15T12:26:53.158Z,60.77
2023-04-15T12:27:53.106Z,60.82
2023-04-15T12:28:53.131Z,58.91
2023-04-15T12:29:53.162Z,58.43
2023-04-15T12:30:53.256Z,60.40
2023-04-15T12:31:53.244Z,58.51
2023-04-15T12:32:53.291Z,59.56
2023-04-15T12:33:53.261Z,60.85
2023-04-15T12:34:53.300Z,59.54
2023-04-15T12:35:53.329Z,59.48
2023-04-15T12:36:53.364Z,58.33
2023-04-15T12:37:53.381Z,58.54
2023-04-15T12:38:53.416Z,59.63
2023-04-15T12:39:53.445Z,58.69
2023-04-15T12:40:53.485Z,61.37
2023-04-15T12:41:53.499Z,59.08
2023-04-15T12:42:53.529Z,58.18